Terminal Aerodrome Forecast
Issued by NWS Sterling, VA

Home | Current Version | Previous Version | Text Only | Print | Product List | Glossary On
Versions: 1 2 3 4 5 6 7 8 9 10 11 12 13 14 15 16 17 18 19 20 21 22 23
602
FTUS41 KLWX 280531
TAFIAD
TAF
KIAD 280531Z 2806/2912 VRB03KT P6SM FEW060 SCT100
     FM280900 VRB03KT 5SM BR BKN003
     FM281200 VRB03KT 5SM BR BKN015
     FM281300 08004KT P6SM BKN015
     FM281600 13006KT P6SM BKN020
     FM290000 14007KT P6SM -SHRA OVC025
     FM290600 15005KT P6SM BKN015
     FM291100 21004KT P6SM BKN090=

USA.gov is the U.S. government's official web portal to all federal, state and local government web resources and services.